createdAt,value
2022-11-28T00:02:42.665Z,39.00
2022-11-28T00:05:47.026Z,38.00
2022-11-28T00:08:51.113Z,39.00
2022-11-28T00:11:54.364Z,37.80
2022-11-28T00:14:57.719Z,39.00
2022-11-28T00:18:02.327Z,41.00
2022-11-28T00:21:07.985Z,42.50
2022-11-28T00:24:11.262Z,36.00
2022-11-28T00:27:14.579Z,42.60
2022-11-28T00:30:18.126Z,34.40
2022-11-28T00:33:22.924Z,39.20
2022-11-28T00:36:26.543Z,36.00
2022-11-28T00:39:29.739Z,39.60
2022-11-28T00:42:32.931Z,38.40
2022-11-28T00:45:36.468Z,38.20
2022-11-28T00:48:41.645Z,41.60
2022-11-28T00:51:45.299Z,37.40
2022-11-28T00:54:48.781Z,38.75
2022-11-28T00:57:52.103Z,37.00
2022-11-28T01:00:55.361Z,38.60
2022-11-28T01:04:02.054Z,39.80
2022-11-28T01:07:05.374Z,36.25
2022-11-28T01:10:09.724Z,37.40
2022-11-28T01:13:13.438Z,37.80
2022-11-28T01:16:17.980Z,37.50
2022-11-28T01:19:23.038Z,39.40
2022-11-28T01:22:26.841Z,39.25
2022-11-28T01:25:31.523Z,39.00
2022-11-28T01:28:34.950Z,34.80
2022-11-28T01:31:38.764Z,38.20
2022-11-28T01:34:43.625Z,42.20
2022-11-28T01:37:47.155Z,35.20
2022-11-28T01:40:51.051Z,33.60
2022-11-28T01:43:59.901Z,37.75
2022-11-28T01:47:03.465Z,35.00
2022-11-28T01:50:10.486Z,35.00
2022-11-28T01:53:14.920Z,32.40
2022-11-28T01:56:21.886Z,35.00
2022-11-28T01:59:28.436Z,37.75
2022-11-28T02:02:37.403Z,34.00
2022-11-28T02:05:42.474Z,35.00
2022-11-28T02:08:45.960Z,33.80
2022-11-28T02:12:08.470Z,35.00
2022-11-28T02:15:29.851Z,34.00
2022-11-28T02:18:52.459Z,34.00
2022-11-28T02:22:02.249Z,33.00
2022-11-28T02:25:27.998Z,32.40
2022-11-28T02:29:10.194Z,35.00
2022-11-28T02:32:31.263Z,34.60
2022-11-28T02:35:39.287Z,33.25
2022-11-28T02:38:57.319Z,35.00
2022-11-28T02:42:10.642Z,33.00
2022-11-28T02:45:25.274Z,32.00
2022-11-28T02:48:38.311Z,32.00
2022-11-28T02:51:46.472Z,34.00
2022-11-28T02:54:52.393Z,34.60
2022-11-28T02:57:56.529Z,34.40
2022-11-28T03:01:00.527Z,34.40
2022-11-28T03:04:20.231Z,32.80
2022-11-28T03:07:38.250Z,31.00
2022-11-28T03:10:46.620Z,30.60
2022-11-28T03:13:58.632Z,35.00
2022-11-28T03:17:12.164Z,34.00
2022-11-28T03:20:24.472Z,31.00
2022-11-28T03:23:35.429Z,34.00
2022-11-28T03:26:48.467Z,34.00
2022-11-28T03:29:56.322Z,33.60
2022-11-28T03:33:02.900Z,33.00
2022-11-28T03:36:13.213Z,33.00
2022-11-28T03:39:21.465Z,33.00
2022-11-28T03:42:28.449Z,33.50
2022-11-28T03:45:38.163Z,32.00
2022-11-28T03:48:45.568Z,32.00
2022-11-28T03:51:56.856Z,33.00
2022-11-28T03:55:05.783Z,32.00
2022-11-28T03:58:16.274Z,33.40
2022-11-28T04:01:29.689Z,32.00
2022-11-28T04:04:42.005Z,33.00
2022-11-28T04:07:53.548Z,33.00
2022-11-28T04:11:03.346Z,33.00
2022-11-28T04:14:12.756Z,31.60
2022-11-28T04:17:23.141Z,32.40
2022-11-28T04:20:31.211Z,31.00
2022-11-28T04:23:39.004Z,32.00
2022-11-28T04:26:48.143Z,31.00
2022-11-28T04:29:55.818Z,33.00
2022-11-28T04:33:02.995Z,31.40
2022-11-28T04:36:08.403Z,30.00
2022-11-28T04:39:16.368Z,29.80
2022-11-28T04:42:24.657Z,32.20
2022-11-28T04:45:32.189Z,33.40
2022-11-28T04:48:35.675Z,33.00
2022-11-28T04:51:45.943Z,31.60
2022-11-28T04:54:57.340Z,32.20
2022-11-28T04:58:10.213Z,30.67
2022-11-28T05:01:19.260Z,31.60
2022-11-28T05:04:23.110Z,30.00
2022-11-28T05:07:26.481Z,30.40
2022-11-28T05:10:31.295Z,32.60
2022-11-28T05:13:34.619Z,32.25
2022-11-28T05:16:37.946Z,31.00
2022-11-28T05:19:41.261Z,32.00
2022-11-28T05:22:44.528Z,28.00
2022-11-28T05:25:49.121Z,28.00
2022-11-28T05:28:52.944Z,31.00
2022-11-28T05:31:56.662Z,31.00
2022-11-28T05:35:00.166Z,32.00
2022-11-28T05:38:03.460Z,32.00
2022-11-28T05:41:09.099Z,31.00
2022-11-28T05:44:12.398Z,30.00
2022-11-28T05:47:16.904Z,30.00
2022-11-28T05:50:20.164Z,28.80
2022-11-28T05:53:23.344Z,32.60
2022-11-28T05:56:27.990Z,32.20
2022-11-28T05:59:31.198Z,30.80
2022-11-28T06:02:36.934Z,30.40
2022-11-28T06:05:43.183Z,30.80
2022-11-28T06:08:48.240Z,32.00
2022-11-28T06:11:52.927Z,33.00
2022-11-28T06:14:56.214Z,32.40
2022-11-28T06:17:59.528Z,31.00
2022-11-28T06:21:03.334Z,31.00
2022-11-28T06:24:07.291Z,31.80
2022-11-28T06:27:11.936Z,32.00
2022-11-28T06:30:15.916Z,29.00
2022-11-28T06:33:19.073Z,30.80
2022-11-28T06:36:22.728Z,29.20
2022-11-28T06:39:26.115Z,30.00
2022-11-28T06:42:31.041Z,31.00
2022-11-28T06:45:34.853Z,30.80
2022-11-28T06:48:38.842Z,30.00
2022-11-28T06:51:43.185Z,27.00
2022-11-28T06:54:46.688Z,30.20
2022-11-28T06:57:51.308Z,28.00
2022-11-28T07:00:54.574Z,28.00
2022-11-28T07:03:58.367Z,30.80
2022-11-28T07:07:01.678Z,24.00
2022-11-28T07:10:05.567Z,28.20
2022-11-28T07:13:10.299Z,28.40
2022-11-28T07:16:16.141Z,28.40
2022-11-28T07:19:22.929Z,28.00
2022-11-28T07:22:26.121Z,25.00
2022-11-28T07:25:29.426Z,27.00
2022-11-28T07:28:35.424Z,26.75
2022-11-28T07:31:38.783Z,29.00
2022-11-28T07:34:44.670Z,28.00
2022-11-28T07:37:51.039Z,28.80
2022-11-28T07:40:54.400Z,27.00
2022-11-28T07:44:01.851Z,29.00
2022-11-28T07:47:05.591Z,28.20
2022-11-28T07:50:10.037Z,28.00
2022-11-28T07:53:13.272Z,26.80
2022-11-28T07:56:21.315Z,27.20
2022-11-28T07:59:25.971Z,26.20
2022-11-28T08:02:32.560Z,27.25
2022-11-28T08:05:35.924Z,27.75
2022-11-28T08:08:39.538Z,25.80
2022-11-28T08:11:43.106Z,27.00
2022-11-28T08:14:47.834Z,29.00
2022-11-28T08:17:51.675Z,26.00
2022-11-28T08:21:05.240Z,28.00
2022-11-28T08:24:09.487Z,26.50
2022-11-28T08:27:12.668Z,27.20
2022-11-28T08:30:17.765Z,25.00
2022-11-28T08:33:21.623Z,28.00
2022-11-28T08:36:27.530Z,28.00
2022-11-28T08:39:32.724Z,29.00
2022-11-28T08:42:36.003Z,26.40
2022-11-28T08:45:40.800Z,27.00
2022-11-28T08:48:44.700Z,28.00
2022-11-28T08:51:47.950Z,23.00
2022-11-28T08:54:51.371Z,26.25
2022-11-28T08:57:54.595Z,27.00
2022-11-28T09:00:59.696Z,25.60
2022-11-28T09:04:03.401Z,28.00
2022-11-28T09:07:06.698Z,26.40
2022-11-28T09:10:10.764Z,26.00
2022-11-28T09:13:15.623Z,24.20
2022-11-28T09:16:20.806Z,18.60
2022-11-28T09:19:25.096Z,22.00
2022-11-28T09:22:29.879Z,23.00
2022-11-28T09:25:33.177Z,24.00
2022-11-28T09:28:36.349Z,26.25
2022-11-28T09:31:46.953Z,23.00
2022-11-28T09:34:51.279Z,28.00
2022-11-28T09:37:54.425Z,22.60
2022-11-28T09:40:57.710Z,27.00
2022-11-28T09:44:04.607Z,26.60
2022-11-28T09:47:17.835Z,23.25
2022-11-28T09:50:24.659Z,24.00
2022-11-28T09:53:35.779Z,23.60
2022-11-28T09:56:39.039Z,23.20
2022-11-28T09:59:42.682Z,22.00
2022-11-28T10:03:03.216Z,26.00
2022-11-28T10:06:16.580Z,26.00
2022-11-28T10:09:36.225Z,26.00
2022-11-28T10:12:53.091Z,23.00
2022-11-28T10:16:07.813Z,25.50
2022-11-28T10:19:46.176Z,22.00
2022-11-28T10:22:45.715Z,22.00
2022-11-28T10:25:54.870Z,22.60
2022-11-28T10:29:02.607Z,22.20
2022-11-28T10:32:07.518Z,23.00
2022-11-28T10:35:28.593Z,22.00
2022-11-28T10:38:37.177Z,20.00
2022-11-28T10:41:46.144Z,17.00
2022-11-28T10:45:00.784Z,18.00
2022-11-28T10:48:38.581Z,16.67
2022-11-28T10:51:49.443Z,15.25
2022-11-28T10:55:13.753Z,15.25
2022-11-28T10:58:24.356Z,15.40
2022-11-28T11:01:31.084Z,15.40
2022-11-28T11:04:37.984Z,14.60
2022-11-28T11:07:48.942Z,14.80
2022-11-28T11:11:04.044Z,15.20
2022-11-28T11:14:09.008Z,15.60
2022-11-28T11:17:30.049Z,17.00
2022-11-28T11:20:38.724Z,17.00
2022-11-28T11:23:43.830Z,15.50
2022-11-28T11:26:49.665Z,14.00
2022-11-28T11:29:53.891Z,15.00
2022-11-28T11:32:58.755Z,15.00
2022-11-28T11:36:05.777Z,14.20
2022-11-28T11:39:21.593Z,14.00
2022-11-28T11:42:28.262Z,14.75
2022-11-28T11:45:34.215Z,16.00
2022-11-28T11:48:39.895Z,16.00
2022-11-28T11:51:43.560Z,14.25
2022-11-28T11:55:04.243Z,14.00
2022-11-28T11:58:12.270Z,15.40
2022-11-28T12:01:21.035Z,15.60
2022-11-28T12:04:44.979Z,14.00
2022-11-28T12:07:58.714Z,15.00
2022-11-28T12:11:14.453Z,14.00
2022-11-28T12:14:29.601Z,15.00
2022-11-28T12:17:49.999Z,13.40
2022-11-28T12:21:07.962Z,15.25
2022-11-28T12:24:14.505Z,14.00
2022-11-28T12:27:34.391Z,13.80
2022-11-28T12:30:54.689Z,14.00
2022-11-28T12:34:10.182Z,13.00
2022-11-28T12:37:42.009Z,12.80
2022-11-28T12:41:04.518Z,14.40
2022-11-28T12:44:21.262Z,13.00
2022-11-28T12:47:37.503Z,13.00
2022-11-28T12:50:43.923Z,12.80
2022-11-28T12:54:03.038Z,19.00
2022-11-28T12:57:13.555Z,16.40
2022-11-28T13:00:22.272Z,15.80
2022-11-28T13:03:41.171Z,16.00
2022-11-28T13:06:56.668Z,19.40
2022-11-28T13:10:05.488Z,20.60
2022-11-28T13:13:15.103Z,17.40
2022-11-28T13:16:27.779Z,18.60
2022-11-28T13:19:39.534Z,17.00
2022-11-28T13:22:57.931Z,20.00
2022-11-28T13:26:06.595Z,11.60
2022-11-28T13:29:23.337Z,19.00
2022-11-28T13:32:37.058Z,20.00
2022-11-28T13:35:43.818Z,15.75
2022-11-28T13:39:11.901Z,20.60
2022-11-28T13:46:09.458Z,18.50
2022-11-28T13:49:23.847Z,14.00
2022-11-28T13:52:36.783Z,15.00
2022-11-28T13:55:47.150Z,18.00
2022-11-28T13:58:58.436Z,19.00
2022-11-28T14:02:05.856Z,19.00
2022-11-28T14:05:27.253Z,16.00
2022-11-28T14:08:35.418Z,13.80
2022-11-28T14:12:00.628Z,21.20
2022-11-28T14:15:24.527Z,20.20
2022-11-28T14:18:58.709Z,16.20
2022-11-28T14:22:17.813Z,17.60
2022-11-28T14:25:28.083Z,15.20
2022-11-28T14:28:36.929Z,11.00
2022-11-28T14:31:50.920Z,17.25
2022-11-28T14:35:06.974Z,23.00
2022-11-28T14:38:44.000Z,20.20
2022-11-28T14:42:59.634Z,19.00
2022-11-28T14:46:19.568Z,15.60
2022-11-28T14:49:24.178Z,16.40
2022-11-28T14:52:44.702Z,18.40
2022-11-28T14:55:50.778Z,17.25
2022-11-28T14:59:03.621Z,20.40
2022-11-28T15:02:45.164Z,20.00
2022-11-28T15:05:52.903Z,20.00
2022-11-28T15:09:04.545Z,18.25
2022-11-28T15:12:18.801Z,17.00
2022-11-28T15:15:22.890Z,16.50
2022-11-28T15:18:27.859Z,20.40
2022-11-28T15:21:33.279Z,13.20
2022-11-28T15:24:38.777Z,16.00
2022-11-28T15:27:43.343Z,19.00
2022-11-28T15:30:48.025Z,19.20
2022-11-28T15:33:52.034Z,22.00
2022-11-28T15:36:57.512Z,20.00
2022-11-28T15:40:04.425Z,23.00
2022-11-28T15:43:13.074Z,22.00
2022-11-28T15:46:21.583Z,22.60
2022-11-28T15:49:27.321Z,22.00
2022-11-28T15:52:32.068Z,24.00
2022-11-28T15:55:35.796Z,21.00
2022-11-28T15:58:42.406Z,21.80
2022-11-28T16:01:46.051Z,22.00
2022-11-28T16:04:50.023Z,25.00
2022-11-28T16:07:53.734Z,24.00
2022-11-28T16:10:58.914Z,23.00
2022-11-28T16:14:09.944Z,22.00
2022-11-28T16:17:19.658Z,22.80
2022-11-28T16:20:25.926Z,24.40
2022-11-28T16:23:31.299Z,25.00
2022-11-28T16:26:37.514Z,31.00
2022-11-28T16:29:46.604Z,28.00
2022-11-28T16:32:51.066Z,27.20
2022-11-28T16:35:54.336Z,28.40
2022-11-28T16:39:07.126Z,28.40
2022-11-28T16:42:17.985Z,29.00
2022-11-28T16:45:27.057Z,30.00
2022-11-28T16:48:33.712Z,27.80
2022-11-28T16:51:39.474Z,30.60
2022-11-28T16:54:42.753Z,30.50
2022-11-28T16:57:47.633Z,31.00
2022-11-28T17:01:00.469Z,28.00
2022-11-28T17:04:04.081Z,30.40
2022-11-28T17:07:10.681Z,27.60
2022-11-28T17:10:14.662Z,30.50
2022-11-28T17:13:17.972Z,26.40
2022-11-28T17:16:24.504Z,27.60
2022-11-28T17:19:30.480Z,27.00
2022-11-28T17:22:41.028Z,27.40
2022-11-28T17:25:45.018Z,22.00
2022-11-28T17:28:48.284Z,26.40
2022-11-28T17:31:55.375Z,27.40
2022-11-28T17:34:59.949Z,28.00
2022-11-28T17:38:03.433Z,29.00
2022-11-28T17:41:07.271Z,29.40
2022-11-28T17:44:17.481Z,26.00
2022-11-28T17:47:23.884Z,27.00
2022-11-28T17:50:27.156Z,27.00
2022-11-28T17:53:30.351Z,27.67
2022-11-28T17:56:34.967Z,28.00
2022-11-28T17:59:38.620Z,26.00
2022-11-28T18:02:44.930Z,29.00
2022-11-28T18:05:50.814Z,27.75
2022-11-28T18:08:54.241Z,28.00
2022-11-28T18:11:57.756Z,27.20
2022-11-28T18:15:02.123Z,29.00
2022-11-28T18:18:07.515Z,28.40
2022-11-28T18:21:11.810Z,30.80
2022-11-28T18:24:15.218Z,28.00
2022-11-28T18:27:18.461Z,29.00
2022-11-28T18:30:21.854Z,29.50
2022-11-28T18:33:26.852Z,30.60
2022-11-28T18:36:32.675Z,33.00
2022-11-28T18:39:36.210Z,34.00
2022-11-28T18:42:39.607Z,30.60
2022-11-28T18:45:43.106Z,28.00
2022-11-28T18:48:49.060Z,31.20
2022-11-28T18:51:52.635Z,32.20
2022-11-28T18:54:56.608Z,33.00
2022-11-28T18:58:00.037Z,30.00
2022-11-28T19:01:10.415Z,30.00
2022-11-28T19:04:16.883Z,30.60
2022-11-28T19:07:21.243Z,33.00
2022-11-28T19:10:24.802Z,31.25
2022-11-28T19:13:28.590Z,30.50
2022-11-28T19:16:35.215Z,32.50
2022-11-28T19:19:42.046Z,32.00
2022-11-28T19:22:47.117Z,31.00
2022-11-28T19:25:50.576Z,31.00
2022-11-28T19:28:54.222Z,31.40
2022-11-28T19:31:57.428Z,30.50
2022-11-28T19:35:02.116Z,30.25
2022-11-28T19:38:05.319Z,33.00
2022-11-28T19:41:10.432Z,32.00
2022-11-28T19:44:15.284Z,32.80
2022-11-28T19:47:18.611Z,32.60
2022-11-28T19:50:23.442Z,32.80
2022-11-28T19:53:30.028Z,33.60
2022-11-28T19:56:33.635Z,34.00
2022-11-28T19:59:37.154Z,34.00
2022-11-28T20:02:40.840Z,33.40
2022-11-28T20:05:45.583Z,34.40
2022-11-28T20:08:50.831Z,34.00
2022-11-28T20:11:54.819Z,33.40
2022-11-28T20:14:58.199Z,36.40
2022-11-28T20:18:01.418Z,34.00
2022-11-28T20:21:07.688Z,36.20
2022-11-28T20:24:11.761Z,35.40
2022-11-28T20:27:15.559Z,35.00
2022-11-28T20:30:19.276Z,42.60
2022-11-28T20:33:22.955Z,36.40
2022-11-28T20:36:29.548Z,35.20
2022-11-28T20:39:33.241Z,33.00
2022-11-28T20:42:39.793Z,38.00
2022-11-28T20:45:43.579Z,36.40
2022-11-28T20:48:47.392Z,39.00
2022-11-28T20:51:52.104Z,38.80
2022-11-28T20:54:55.379Z,38.75
2022-11-28T20:57:58.632Z,35.00
2022-11-28T21:01:02.030Z,38.60
2022-11-28T21:04:08.529Z,34.80
2022-11-28T21:07:13.160Z,35.50
2022-11-28T21:10:16.415Z,40.00
2022-11-28T21:13:19.963Z,35.00
2022-11-28T21:16:25.992Z,41.00
2022-11-28T21:19:29.253Z,40.60
2022-11-28T21:22:33.881Z,37.60
2022-11-28T21:25:38.355Z,41.00
2022-11-28T21:28:44.492Z,37.00
2022-11-28T21:31:48.260Z,35.40
2022-11-28T21:34:51.554Z,34.33
2022-11-28T21:37:57.188Z,41.00
2022-11-28T21:41:01.057Z,39.50
2022-11-28T21:44:04.327Z,34.75
2022-11-28T21:47:09.615Z,40.40
2022-11-28T21:50:15.586Z,34.00
2022-11-28T21:53:20.285Z,35.00
2022-11-28T21:56:23.934Z,35.00
2022-11-28T21:59:27.176Z,39.00
2022-11-28T22:02:31.195Z,35.00
2022-11-28T22:05:35.504Z,37.80
2022-11-28T22:08:40.306Z,34.00
2022-11-28T22:11:43.857Z,33.80
2022-11-28T22:14:47.644Z,33.00
2022-11-28T22:17:51.011Z,34.60
2022-11-28T22:21:02.213Z,31.67
2022-11-28T22:24:08.185Z,34.00
2022-11-28T22:27:11.891Z,42.60
2022-11-28T22:30:15.356Z,36.00
2022-11-28T22:33:20.015Z,35.80
2022-11-28T22:36:24.148Z,38.60
2022-11-28T22:39:30.273Z,35.00
2022-11-28T22:42:33.673Z,31.00
2022-11-28T22:45:37.363Z,34.80
2022-11-28T22:48:41.138Z,34.25
2022-11-28T22:51:44.913Z,34.50
2022-11-28T22:54:51.929Z,33.00
2022-11-28T22:57:55.433Z,41.40
2022-11-28T23:00:58.782Z,34.00
2022-11-28T23:04:02.317Z,36.40
2022-11-28T23:07:05.860Z,34.60
2022-11-28T23:10:11.096Z,33.75
2022-11-28T23:13:14.362Z,35.00
2022-11-28T23:16:19.516Z,34.40
2022-11-28T23:19:24.669Z,33.25
2022-11-28T23:22:29.492Z,35.00
2022-11-28T23:25:36.680Z,39.25
2022-11-28T23:28:40.099Z,35.00
2022-11-28T23:31:44.108Z,39.00
2022-11-28T23:34:48.156Z,35.40
2022-11-28T23:37:51.370Z,37.00
2022-11-28T23:40:59.493Z,39.00
2022-11-28T23:44:03.022Z,39.00
2022-11-28T23:47:06.700Z,40.75
2022-11-28T23:50:11.287Z,39.00
2022-11-28T23:53:14.687Z,34.00
2022-11-28T23:56:21.437Z,40.00
2022-11-28T23:59:24.695Z,40.00
